Time;durP1;ratioP1;P1;durP2;ratioP2;P2;SDS_P1;SDS_P2;PMS_P1;PMS_P2;Temp;Humidity;BMP_temperature;BMP_pressure;BME280_temperature;BME280_humidity;BME280_pressure;Samples;Min_cycle;Max_cycle;Signal;HPM_P1;HPM_P2
2022/01/09 00:00:57;;;;;;;;;;;-3276.40;88.10;;;;;;5073903;28;20354;-66
2022/01/09 00:03:23;;;;;;;;;;;-3276.40;88.30;;;;;;5073807;28;19908;-66
2022/01/09 00:05:49;;;;;;;;;;;-3276.50;88.20;;;;;;5073761;28;19915;-66
2022/01/09 00:08:14;;;;;;;;;;;-3276.60;88.00;;;;;;5073619;28;20003;-66
2022/01/09 00:10:46;;;;;;;;;;;-3276.70;87.70;;;;;;5073667;28;19908;-65
2022/01/09 00:13:12;;;;;;;;;;;-3276.70;87.40;;;;;;5072342;28;19908;-65
2022/01/09 00:15:38;;;;;;;;;;;-3276.70;86.90;;;;;;5073580;28;19908;-65
2022/01/09 00:18:03;;;;;;;;;;;0.00;87.00;;;;;;5073424;28;19920;-65
2022/01/09 00:20:29;;;;;;;;;;;0.00;86.90;;;;;;5073511;28;19981;-65
2022/01/09 00:22:54;;;;;;;;;;;0.00;86.60;;;;;;5073470;28;19909;-65
2022/01/09 00:25:22;;;;;;;;;;;0.00;86.60;;;;;;5073447;28;19938;-65
2022/01/09 00:27:48;;;;;;;;;;;0.00;86.60;;;;;;5073303;28;19909;-65
2022/01/09 00:30:14;;;;;;;;;;;0.10;86.60;;;;;;5073652;28;19973;-65
2022/01/09 00:32:40;;;;;;;;;;;0.10;86.40;;;;;;5073357;28;19912;-65
2022/01/09 00:35:06;;;;;;;;;;;0.10;85.80;;;;;;5073356;28;19994;-65
2022/01/09 00:37:31;;;;;;;;;;;0.10;85.50;;;;;;5073223;28;19935;-65
2022/01/09 00:39:57;;;;;;;;;;;0.00;85.40;;;;;;5073267;28;20263;-65
2022/01/09 00:42:22;;;;;;;;;;;0.00;85.60;;;;;;5073232;28;19909;-65
2022/01/09 00:44:48;;;;;;;;;;;0.00;86.20;;;;;;5073206;28;19908;-65
2022/01/09 00:47:14;;;;;;;;;;;0.00;86.40;;;;;;5073170;28;19916;-65
2022/01/09 00:49:39;;;;;;;;;;;-3276.60;86.80;;;;;;5071988;28;19909;-65
2022/01/09 00:52:05;;;;;;;;;;;-3276.60;86.80;;;;;;5073135;28;20347;-65
2022/01/09 00:54:30;;;;;;;;;;;-3276.60;86.80;;;;;;5071655;28;19916;-65
2022/01/09 00:56:56;;;;;;;;;;;-3276.50;87.00;;;;;;5072948;28;19919;-65
2022/01/09 00:59:22;;;;;;;;;;;-3276.50;87.30;;;;;;5072974;28;20011;-65
2022/01/09 01:01:47;;;;;;;;;;;-3276.40;87.50;;;;;;5073072;28;19915;-65
2022/01/09 01:04:13;;;;;;;;;;;-3276.40;87.60;;;;;;5073008;28;19908;-65
2022/01/09 01:06:38;;;;;;;;;;;-3276.40;87.80;;;;;;5073012;28;19908;-64
2022/01/09 01:09:04;;;;;;;;;;;-3276.40;87.90;;;;;;5072889;28;20054;-65
2022/01/09 01:11:29;;;;;;;;;;;-3276.40;88.20;;;;;;5072953;28;19909;-65
2022/01/09 01:13:55;;;;;;;;;;;-3276.40;88.40;;;;;;5072938;28;19958;-65
2022/01/09 01:16:20;;;;;;;;;;;-3276.40;88.90;;;;;;5072881;28;20366;-65
2022/01/09 01:18:46;;;;;;;;;;;-3276.40;88.80;;;;;;5072802;28;19961;-65
2022/01/09 01:21:12;;;;;;;;;;;-3276.40;89.00;;;;;;5072867;28;19908;-65
2022/01/09 01:23:38;;;;;;;;;;;-3276.50;89.00;;;;;;5072864;28;20090;-65
2022/01/09 01:26:03;;;;;;;;;;;-3276.60;88.70;;;;;;5071488;28;19974;-66
2022/01/09 01:28:30;;;;;;;;;;;-3276.60;88.60;;;;;;5072711;28;19954;-66
2022/01/09 01:30:56;;;;;;;;;;;-3276.70;88.10;;;;;;5072692;28;19909;-66
2022/01/09 01:33:21;;;;;;;;;;;0.00;88.00;;;;;;5072746;28;19962;-66
2022/01/09 01:35:47;;;;;;;;;;;0.00;87.60;;;;;;5072746;28;19908;-66
2022/01/09 01:38:13;;;;;;;;;;;0.00;87.60;;;;;;5072624;28;19912;-66
2022/01/09 01:40:40;;;;;;;;;;;0.00;87.60;;;;;;5072960;28;19908;-66
2022/01/09 01:43:06;;;;;;;;;;;0.00;87.50;;;;;;5072696;28;20099;-66
2022/01/09 01:45:32;;;;;;;;;;;0.10;87.40;;;;;;5072660;28;20511;-66
2022/01/09 01:48:05;;;;;;;;;;;0.10;87.10;;;;;;5072660;28;19948;-66
2022/01/09 01:50:35;;;;;;;;;;;0.10;87.00;;;;;;5072589;28;19912;-66
2022/01/09 01:53:01;;;;;;;;;;;0.10;86.80;;;;;;5072561;28;19913;-66
2022/01/09 01:55:28;;;;;;;;;;;0.00;86.60;;;;;;5072544;28;20290;-66
2022/01/09 01:57:54;;;;;;;;;;;0.00;86.40;;;;;;5072273;28;19924;-66
2022/01/09 02:00:20;;;;;;;;;;;-3276.60;86.40;;;;;;5072533;28;19938;-66
2022/01/09 02:02:46;;;;;;;;;;;-3276.50;86.90;;;;;;5072470;28;19908;-66
2022/01/09 02:05:11;;;;;;;;;;;-3276.40;87.20;;;;;;5073315;28;20285;-66
2022/01/09 02:07:38;;;;;;;;;;;-3276.40;87.30;;;;;;5076026;28;19916;-66
2022/01/09 02:10:07;;;;;;;;;;;-3276.50;87.50;;;;;;5075868;28;19915;-66
2022/01/09 02:12:35;;;;;;;;;;;-3276.60;87.40;;;;;;5075980;28;19909;-66
2022/01/09 02:15:01;;;;;;;;;;;-3276.60;87.50;;;;;;5075886;28;20011;-66
2022/01/09 02:17:26;;;;;;;;;;;-3276.70;87.40;;;;;;5075822;28;20363;-66
2022/01/09 02:19:56;;;;;;;;;;;-3276.70;87.50;;;;;;5075809;28;19916;-66
2022/01/09 02:22:24;;;;;;;;;;;-3276.70;87.40;;;;;;5074470;28;19912;-66
2022/01/09 02:24:50;;;;;;;;;;;-3276.70;87.20;;;;;;5075745;28;19909;-66
2022/01/09 02:27:16;;;;;;;;;;;-3276.70;87.40;;;;;;5075607;28;19908;-66
2022/01/09 02:29:41;;;;;;;;;;;-3276.70;87.40;;;;;;5075660;28;19908;-66
2022/01/09 02:32:07;;;;;;;;;;;-3276.70;87.20;;;;;;5075593;28;19995;-66
2022/01/09 02:34:33;;;;;;;;;;;0.00;87.00;;;;;;5075582;28;19915;-66
2022/01/09 02:36:59;;;;;;;;;;;0.00;87.00;;;;;;5075521;28;19944;-66
2022/01/09 02:39:24;;;;;;;;;;;0.00;87.00;;;;;;5075424;28;19962;-66
2022/01/09 02:41:50;;;;;;;;;;;0.00;87.00;;;;;;5075344;28;19913;-66
2022/01/09 02:44:16;;;;;;;;;;;0.00;87.00;;;;;;5075386;28;19912;-66
2022/01/09 02:49:10;;;;;;;;;;;0.00;86.40;;;;;;5075315;28;19915;-66
2022/01/09 02:51:36;;;;;;;;;;;0.00;86.10;;;;;;5075218;28;19909;-66
2022/01/09 02:55:05;;;;;;;;;;;0.00;86.00;;;;;;5075190;28;19913;-66
2022/01/09 02:56:47;;;;;;;;;;;0.00;86.00;;;;;;5074816;28;19913;-66
2022/01/09 02:59:12;;;;;;;;;;;-3276.70;85.90;;;;;;5075018;28;20420;-66
2022/01/09 03:01:38;;;;;;;;;;;-3276.50;86.10;;;;;;5075030;28;20370;-66
2022/01/09 03:04:03;;;;;;;;;;;-3276.40;86.40;;;;;;5075004;28;20378;-66
2022/01/09 03:06:29;;;;;;;;;;;-3276.40;86.70;;;;;;5075195;28;20269;-66
2022/01/09 03:08:59;;;;;;;;;;;-3276.40;86.90;;;;;;5074840;28;19908;-66
2022/01/09 03:11:25;;;;;;;;;;;-3276.30;86.70;;;;;;5075164;28;19908;-66
2022/01/09 03:13:50;;;;;;;;;;;-3276.30;86.50;;;;;;5074829;28;19919;-66
2022/01/09 03:16:16;;;;;;;;;;;-3276.30;86.90;;;;;;5074744;28;20259;-66
2022/01/09 03:18:41;;;;;;;;;;;-3276.30;86.70;;;;;;5073322;28;19920;-66
2022/01/09 03:21:07;;;;;;;;;;;-3276.40;86.60;;;;;;5074662;28;19908;-66
2022/01/09 03:23:33;;;;;;;;;;;-3276.40;86.40;;;;;;5074605;28;20316;-66
2022/01/09 03:25:58;;;;;;;;;;;-3276.40;86.20;;;;;;5074529;28;20313;-66
2022/01/09 03:28:24;;;;;;;;;;;-3276.50;86.10;;;;;;5074399;28;20003;-66
2022/01/09 03:30:49;;;;;;;;;;;-3276.50;86.00;;;;;;5074514;28;19950;-66
2022/01/09 03:33:15;;;;;;;;;;;-3276.50;85.90;;;;;;5074432;28;19959;-66
2022/01/09 03:35:40;;;;;;;;;;;-3276.60;85.90;;;;;;5074399;28;19920;-66
2022/01/09 03:38:06;;;;;;;;;;;-3276.60;86.10;;;;;;5074269;28;19935;-66
2022/01/09 03:40:31;;;;;;;;;;;-3276.60;86.00;;;;;;5074316;28;19999;-66
2022/01/09 03:42:57;;;;;;;;;;;-3276.60;85.80;;;;;;5074257;28;19974;-66
2022/01/09 03:45:24;;;;;;;;;;;-3276.60;85.90;;;;;;5074184;28;19958;-66
2022/01/09 03:47:50;;;;;;;;;;;-3276.60;86.10;;;;;;5074148;28;19908;-66
2022/01/09 03:50:17;;;;;;;;;;;-3276.60;86.30;;;;;;5074107;28;20346;-66
2022/01/09 03:52:42;;;;;;;;;;;-3276.60;86.40;;;;;;5073859;28;19912;-66
2022/01/09 03:55:10;;;;;;;;;;;-3276.50;86.40;;;;;;5074021;28;19908;-66
2022/01/09 03:57:36;;;;;;;;;;;-3276.50;86.50;;;;;;5073700;28;20007;-66
2022/01/09 04:00:03;;;;;;;;;;;-3276.50;86.30;;;;;;5073894;28;20054;-66
2022/01/09 04:02:29;;;;;;;;;;;-3276.50;86.10;;;;;;5072893;28;20251;-66
2022/01/09 04:04:54;;;;;;;;;;;-3276.50;86.00;;;;;;5072545;28;19962;-66
2022/01/09 04:07:20;;;;;;;;;;;-3276.50;85.90;;;;;;5073762;28;20416;-66
2022/01/09 04:09:47;;;;;;;;;;;-3276.40;85.80;;;;;;5073620;28;19909;-66
2022/01/09 04:12:31;;;;;;;;;;;-3276.40;85.90;;;;;;5073620;28;19908;-66
2022/01/09 04:14:57;;;;;;;;;;;-3276.40;86.10;;;;;;5073622;28;19913;-66
2022/01/09 04:17:35;;;;;;;;;;;-3276.30;86.60;;;;;;5073499;28;19915;-66
2022/01/09 04:20:00;;;;;;;;;;;-3276.30;87.00;;;;;;5073591;28;20467;-66
2022/01/09 04:22:26;;;;;;;;;;;-3276.30;87.40;;;;;;5073524;28;19955;-66
2022/01/09 04:24:51;;;;;;;;;;;-3276.20;87.70;;;;;;5073489;28;19952;-66
2022/01/09 04:27:17;;;;;;;;;;;-3276.20;87.60;;;;;;5073240;28;20009;-66
2022/01/09 04:29:42;;;;;;;;;;;-3276.20;87.50;;;;;;5071824;28;19951;-66
2022/01/09 04:32:08;;;;;;;;;;;-3276.20;87.20;;;;;;5073377;28;19908;-66
2022/01/09 04:34:33;;;;;;;;;;;-3276.30;86.90;;;;;;5072060;28;19908;-66
2022/01/09 04:37:00;;;;;;;;;;;-3276.30;86.50;;;;;;5073590;28;19908;-66
2022/01/09 04:39:26;;;;;;;;;;;-3276.30;86.20;;;;;;5073211;28;19920;-66
2022/01/09 04:41:52;;;;;;;;;;;-3276.40;86.00;;;;;;5071977;28;19909;-66
2022/01/09 04:44:17;;;;;;;;;;;-3276.40;85.70;;;;;;5073243;28;19908;-66
2022/01/09 04:46:50;;;;;;;;;;;-3276.30;85.50;;;;;;5073186;28;19909;-66
2022/01/09 04:49:17;;;;;;;;;;;-3276.30;85.40;;;;;;5073203;28;19916;-66
2022/01/09 04:51:43;;;;;;;;;;;-3276.30;85.40;;;;;;5073158;28;19991;-66
2022/01/09 04:54:08;;;;;;;;;;;-3276.30;85.50;;;;;;5073126;28;20005;-66
2022/01/09 04:56:34;;;;;;;;;;;-3276.20;85.20;;;;;;5073085;28;19908;-66
2022/01/09 04:58:59;;;;;;;;;;;-3276.00;85.40;;;;;;5099070;22;19932;-66
2022/01/09 05:01:25;;;;;;;;;;;-3275.90;85.90;;;;;;5093185;28;19908;-66
2022/01/09 05:03:50;;;;;;;;;;;-3275.80;86.50;;;;;;5093212;28;19912;-66
2022/01/09 05:06:16;;;;;;;;;;;-3275.80;87.00;;;;;;5108869;28;19915;-66
2022/01/09 05:08:41;;;;;;;;;;;-3275.80;87.20;;;;;;5105364;28;20374;-66
2022/01/09 05:11:07;;;;;;;;;;;-3275.70;87.40;;;;;;5071653;28;19916;-66
2022/01/09 05:13:32;;;;;;;;;;;-3275.70;87.70;;;;;;5072948;28;19916;-66
2022/01/09 05:16:00;;;;;;;;;;;-3275.70;88.10;;;;;;5072864;28;19908;-66
2022/01/09 05:18:25;;;;;;;;;;;-3275.80;88.40;;;;;;5071543;28;19912;-66
2022/01/09 05:20:51;;;;;;;;;;;-3275.80;88.30;;;;;;5072861;28;19978;-66
2022/01/09 05:23:17;;;;;;;;;;;-3275.80;88.20;;;;;;5072887;28;19915;-66
2022/01/09 05:25:43;;;;;;;;;;;-3275.80;88.30;;;;;;5072844;28;20431;-65
2022/01/09 05:28:08;;;;;;;;;;;-3275.80;88.30;;;;;;5072720;28;19909;-66
2022/01/09 05:30:34;;;;;;;;;;;-3275.70;88.90;;;;;;5072744;28;19909;-66
2022/01/09 05:33:00;;;;;;;;;;;-3275.70;89.30;;;;;;5072755;28;20366;-66
2022/01/09 05:35:25;;;;;;;;;;;-3275.80;88.80;;;;;;5072747;28;19932;-66
2022/01/09 05:37:51;;;;;;;;;;;-3275.80;88.30;;;;;;5071327;28;20286;-66
2022/01/09 05:40:19;;;;;;;;;;;-3275.80;88.20;;;;;;5074017;28;19909;-66
2022/01/09 05:42:45;;;;;;;;;;;-3275.90;88.20;;;;;;5075242;28;19916;-66
2022/01/09 05:45:10;;;;;;;;;;;-3276.00;88.40;;;;;;5076489;28;19915;-66
2022/01/09 05:47:36;;;;;;;;;;;-3276.20;88.00;;;;;;5076439;28;19908;-66
2022/01/09 05:50:02;;;;;;;;;;;-3276.40;87.00;;;;;;5076371;28;19916;-66
2022/01/09 05:52:28;;;;;;;;;;;-3276.40;86.50;;;;;;5076631;28;19936;-66
2022/01/09 05:54:53;;;;;;;;;;;-3276.50;85.90;;;;;;5076307;28;20337;-66
2022/01/09 05:57:19;;;;;;;;;;;-3276.50;85.70;;;;;;5075957;28;20389;-66
2022/01/09 05:59:44;;;;;;;;;;;-3276.50;85.80;;;;;;5076218;28;19959;-66
2022/01/09 06:02:10;;;;;;;;;;;-3276.60;85.60;;;;;;5076196;28;20324;-66
2022/01/09 06:04:35;;;;;;;;;;;-3276.70;85.30;;;;;;5076107;28;19908;-66
2022/01/09 06:07:01;;;;;;;;;;;-3276.70;85.00;;;;;;5076094;28;20328;-66
2022/01/09 06:09:26;;;;;;;;;;;-3276.70;85.60;;;;;;5075977;28;19909;-66
2022/01/09 06:11:52;;;;;;;;;;;-3276.60;85.70;;;;;;5075982;28;20015;-66
2022/01/09 06:14:17;;;;;;;;;;;-3276.60;86.00;;;;;;5075931;28;19916;-66
2022/01/09 06:16:43;;;;;;;;;;;-3276.50;86.10;;;;;;5075849;28;19908;-66
2022/01/09 06:19:10;;;;;;;;;;;-3276.60;86.00;;;;;;5075770;28;19916;-66
2022/01/09 06:21:36;;;;;;;;;;;-3276.60;85.60;;;;;;5075734;28;20401;-66
2022/01/09 06:24:01;;;;;;;;;;;-3276.70;85.00;;;;;;5075721;28;19912;-66
2022/01/09 06:26:27;;;;;;;;;;;-3276.70;84.50;;;;;;5075681;28;19915;-66
2022/01/09 06:28:52;;;;;;;;;;;0.00;84.30;;;;;;5075579;28;19966;-66
2022/01/09 06:31:18;;;;;;;;;;;0.00;84.30;;;;;;5075591;28;19916;-66
2022/01/09 06:33:43;;;;;;;;;;;0.00;84.60;;;;;;5074264;28;19909;-66
2022/01/09 06:36:09;;;;;;;;;;;0.00;84.80;;;;;;5075498;28;19929;-66
2022/01/09 06:38:37;;;;;;;;;;;0.00;84.70;;;;;;5075405;28;19917;-66
2022/01/09 06:41:03;;;;;;;;;;;0.00;83.80;;;;;;5075428;28;19909;-66
2022/01/09 06:43:28;;;;;;;;;;;0.10;83.00;;;;;;5075683;28;20278;-66
2022/01/09 06:45:54;;;;;;;;;;;0.10;82.70;;;;;;5075324;28;19960;-66
2022/01/09 06:48:19;;;;;;;;;;;0.20;82.40;;;;;;5075302;28;19963;-66
2022/01/09 06:50:45;;;;;;;;;;;0.20;82.10;;;;;;5074891;28;19909;-66
2022/01/09 06:53:10;;;;;;;;;;;0.20;81.60;;;;;;5075207;28;19915;-66
2022/01/09 06:55:36;;;;;;;;;;;0.30;81.60;;;;;;5075110;28;20454;-66
2022/01/09 06:58:01;;;;;;;;;;;0.20;82.60;;;;;;5074820;28;20294;-66
2022/01/09 07:00:27;;;;;;;;;;;0.20;82.90;;;;;;5075058;28;20374;-66
2022/01/09 07:02:52;;;;;;;;;;;0.10;83.60;;;;;;5075005;28;19958;-66
2022/01/09 07:05:18;;;;;;;;;;;0.00;83.30;;;;;;5074991;28;19908;-66
2022/01/09 07:07:44;;;;;;;;;;;0.00;83.30;;;;;;5074927;28;20301;-66
2022/01/09 07:10:10;;;;;;;;;;;0.00;83.50;;;;;;5074792;28;19909;-66
2022/01/09 07:12:36;;;;;;;;;;;0.00;83.40;;;;;;5074776;28;20382;-66
2022/01/09 07:15:02;;;;;;;;;;;0.10;83.20;;;;;;5074817;28;20034;-66
2022/01/09 07:17:27;;;;;;;;;;;0.20;82.70;;;;;;5074662;28;19966;-66
2022/01/09 07:19:53;;;;;;;;;;;0.20;82.30;;;;;;5074647;28;19986;-66
2022/01/09 07:22:18;;;;;;;;;;;0.30;82.10;;;;;;5074662;28;19908;-66
2022/01/09 07:24:44;;;;;;;;;;;0.30;82.40;;;;;;5074600;28;20277;-66
2022/01/09 07:27:09;;;;;;;;;;;0.40;82.50;;;;;;5074500;28;19912;-66
2022/01/09 07:29:35;;;;;;;;;;;0.30;82.60;;;;;;5074519;28;19909;-66
2022/01/09 07:32:01;;;;;;;;;;;0.20;83.30;;;;;;5074470;28;19981;-66
2022/01/09 07:34:27;;;;;;;;;;;0.10;84.00;;;;;;5074424;28;19915;-66
2022/01/09 07:36:52;;;;;;;;;;;0.20;84.20;;;;;;5074322;28;19999;-66
2022/01/09 07:39:18;;;;;;;;;;;0.30;83.90;;;;;;5074219;28;19962;-66
2022/01/09 07:41:44;;;;;;;;;;;0.30;83.90;;;;;;5074247;28;19908;-66
2022/01/09 07:44:09;;;;;;;;;;;0.30;83.90;;;;;;5074227;28;19909;-66
2022/01/09 07:46:35;;;;;;;;;;;0.30;83.80;;;;;;5074178;28;19951;-66
2022/01/09 07:49:00;;;;;;;;;;;0.30;83.40;;;;;;5074086;28;19963;-66
2022/01/09 07:51:26;;;;;;;;;;;0.20;83.40;;;;;;5074055;28;19908;-66
2022/01/09 07:53:52;;;;;;;;;;;0.20;83.80;;;;;;5074281;28;19920;-66
2022/01/09 07:56:17;;;;;;;;;;;0.10;84.00;;;;;;5073964;28;20389;-66
2022/01/09 07:58:43;;;;;;;;;;;0.20;84.10;;;;;;5073644;28;19927;-66
2022/01/09 08:01:08;;;;;;;;;;;0.20;83.90;;;;;;5073895;28;19908;-66
2022/01/09 08:03:35;;;;;;;;;;;0.20;84.10;;;;;;5073137;28;19915;-66
2022/01/09 08:06:01;;;;;;;;;;;0.30;84.40;;;;;;5072508;28;19908;-66
2022/01/09 08:08:26;;;;;;;;;;;0.40;84.20;;;;;;5073713;28;19999;-66
2022/01/09 08:10:52;;;;;;;;;;;0.50;84.00;;;;;;5073670;28;19909;-66
2022/01/09 08:13:18;;;;;;;;;;;0.60;83.40;;;;;;5073688;28;19909;-66
2022/01/09 08:15:43;;;;;;;;;;;0.70;83.00;;;;;;5073649;28;19969;-66
2022/01/09 08:18:09;;;;;;;;;;;0.70;81.70;;;;;;5072218;28;20019;-66
2022/01/09 08:20:34;;;;;;;;;;;0.70;80.90;;;;;;5073552;28;19943;-66
2022/01/09 08:23:00;;;;;;;;;;;0.80;81.00;;;;;;5073491;28;19908;-66
2022/01/09 08:25:26;;;;;;;;;;;0.80;81.30;;;;;;5073503;28;19908;-66
2022/01/09 08:27:51;;;;;;;;;;;0.90;81.70;;;;;;5073320;28;19912;-66
2022/01/09 08:30:18;;;;;;;;;;;0.90;81.60;;;;;;5073447;28;19958;-66
2022/01/09 08:32:44;;;;;;;;;;;0.90;81.30;;;;;;5072068;28;19912;-66
2022/01/09 08:35:10;;;;;;;;;;;1.00;81.10;;;;;;5073374;28;19961;-66
2022/01/09 08:37:36;;;;;;;;;;;1.00;80.80;;;;;;5073218;28;20366;-66
2022/01/09 08:40:02;;;;;;;;;;;1.00;81.60;;;;;;5071917;28;19913;-66
2022/01/09 08:42:28;;;;;;;;;;;1.00;82.20;;;;;;5073178;28;19934;-66
2022/01/09 08:44:53;;;;;;;;;;;1.00;82.60;;;;;;5073138;28;19908;-66
2022/01/09 08:47:19;;;;;;;;;;;1.00;81.90;;;;;;5073154;28;19955;-66
2022/01/09 08:49:44;;;;;;;;;;;1.00;81.60;;;;;;5071871;28;19936;-66
2022/01/09 08:52:10;;;;;;;;;;;1.00;81.90;;;;;;5071726;28;19908;-66
2022/01/09 08:54:35;;;;;;;;;;;1.10;81.00;;;;;;5073089;28;19913;-66
2022/01/09 08:57:01;;;;;;;;;;;1.20;80.80;;;;;;5072919;28;19912;-66
2022/01/09 08:59:26;;;;;;;;;;;1.20;81.20;;;;;;5072990;28;19917;-66
2022/01/09 09:01:52;;;;;;;;;;;1.30;81.00;;;;;;5073037;28;19908;-66
2022/01/09 09:04:18;;;;;;;;;;;1.40;80.60;;;;;;5073047;28;19991;-66
2022/01/09 09:06:44;;;;;;;;;;;1.50;80.00;;;;;;5071721;28;19956;-66
2022/01/09 09:09:11;;;;;;;;;;;1.50;79.60;;;;;;5072951;28;19915;-66
2022/01/09 09:11:37;;;;;;;;;;;1.70;79.40;;;;;;5072940;28;19908;-66
2022/01/09 09:14:03;;;;;;;;;;;1.70;79.50;;;;;;5073666;28;19915;-66
2022/01/09 09:16:29;;;;;;;;;;;1.80;78.80;;;;;;5075772;28;19915;-66
2022/01/09 09:18:54;;;;;;;;;;;1.90;78.90;;;;;;5076940;28;19912;-66
2022/01/09 09:21:20;;;;;;;;;;;1.90;78.20;;;;;;5076969;28;20374;-66
2022/01/09 09:23:45;;;;;;;;;;;1.70;79.30;;;;;;5076936;28;19947;-66
2022/01/09 09:26:11;;;;;;;;;;;1.70;79.50;;;;;;5076816;28;19937;-66
2022/01/09 09:28:37;;;;;;;;;;;1.70;79.80;;;;;;5076731;28;19908;-67
2022/01/09 09:31:03;;;;;;;;;;;1.80;80.40;;;;;;5076792;28;19913;-67
2022/01/09 09:33:29;;;;;;;;;;;1.80;80.50;;;;;;5076726;28;20366;-66
2022/01/09 09:35:56;;;;;;;;;;;1.80;80.90;;;;;;5075381;28;19915;-66
2022/01/09 09:38:22;;;;;;;;;;;1.90;82.00;;;;;;5076794;28;19955;-66
2022/01/09 09:40:47;;;;;;;;;;;1.90;81.70;;;;;;5076567;28;19940;-66
2022/01/09 09:43:13;;;;;;;;;;;1.80;81.70;;;;;;5076516;28;19971;-66
2022/01/09 09:45:38;;;;;;;;;;;1.80;81.30;;;;;;5075152;28;20384;-66
2022/01/09 09:48:04;;;;;;;;;;;1.80;81.20;;;;;;5076425;28;19915;-66
2022/01/09 09:50:30;;;;;;;;;;;1.90;80.90;;;;;;5075109;28;19922;-66
2022/01/09 09:52:57;;;;;;;;;;;2.00;80.20;;;;;;5076332;28;20354;-66
2022/01/09 09:55:23;;;;;;;;;;;2.00;79.00;;;;;;5076291;28;19908;-66
2022/01/09 09:57:49;;;;;;;;;;;2.20;79.00;;;;;;5076039;28;20290;-66
2022/01/09 10:00:16;;;;;;;;;;;2.20;78.60;;;;;;5076199;28;19915;-66
2022/01/09 10:02:55;;;;;;;;;;;2.20;78.60;;;;;;5076150;28;19954;-66
2022/01/09 10:05:21;;;;;;;;;;;2.20;79.10;;;;;;5076117;28;19909;-66
2022/01/09 10:07:47;;;;;;;;;;;2.20;78.00;;;;;;5076105;28;19912;-66
2022/01/09 10:10:15;;;;;;;;;;;2.20;77.80;;;;;;5075945;28;19999;-67
2022/01/09 10:12:41;;;;;;;;;;;2.30;77.60;;;;;;5075986;28;19958;-67
2022/01/09 10:15:09;;;;;;;;;;;2.30;77.10;;;;;;5075964;28;19909;-66
2022/01/09 10:17:34;;;;;;;;;;;2.30;76.30;;;;;;5076106;28;19915;-66
2022/01/09 10:20:14;;;;;;;;;;;2.40;77.70;;;;;;5075862;28;19909;-66
2022/01/09 10:22:40;;;;;;;;;;;2.40;78.00;;;;;;5074519;28;19908;-66
2022/01/09 10:25:17;;;;;;;;;;;2.40;77.60;;;;;;5075771;28;19913;-66
2022/01/09 10:27:44;;;;;;;;;;;2.40;77.20;;;;;;5073793;28;19909;-66
2022/01/09 10:30:10;;;;;;;;;;;2.40;76.20;;;;;;5075668;28;20013;-66
2022/01/09 10:32:36;;;;;;;;;;;2.40;75.90;;;;;;5075553;28;20386;-66
2022/01/09 10:35:10;;;;;;;;;;;2.50;73.70;;;;;;5075574;28;19912;-66
2022/01/09 10:37:37;;;;;;;;;;;2.50;73.40;;;;;;5074113;28;19912;-66
2022/01/09 10:40:05;;;;;;;;;;;2.60;73.40;;;;;;5075488;28;19908;-66
2022/01/09 10:42:31;;;;;;;;;;;2.70;73.30;;;;;;5075443;28;19916;-66
2022/01/09 10:45:14;;;;;;;;;;;2.80;73.30;;;;;;5074082;28;19908;-66
2022/01/09 10:47:39;;;;;;;;;;;2.90;73.00;;;;;;5075646;28;19956;-66
2022/01/09 10:50:05;;;;;;;;;;;3.00;73.30;;;;;;5075242;28;19908;-66
2022/01/09 10:52:36;;;;;;;;;;;3.00;72.70;;;;;;5074733;28;19908;-66
2022/01/09 10:55:06;;;;;;;;;;;3.10;72.50;;;;;;5074980;28;20409;-66
2022/01/09 10:57:33;;;;;;;;;;;3.10;73.10;;;;;;5074513;28;20035;-67
2022/01/09 11:00:07;;;;;;;;;;;3.20;73.70;;;;;;5075160;28;19909;-66
2022/01/09 11:02:32;;;;;;;;;;;3.20;74.10;;;;;;5073748;28;19962;-66
2022/01/09 11:04:58;;;;;;;;;;;3.40;73.70;;;;;;5075011;28;20340;-67
2022/01/09 11:07:24;;;;;;;;;;;3.40;73.30;;;;;;5074989;28;20286;-66
2022/01/09 11:09:51;;;;;;;;;;;3.40;72.40;;;;;;5074877;28;19931;-66
2022/01/09 11:12:20;;;;;;;;;;;3.30;72.90;;;;;;5074858;28;19931;-66
2022/01/09 11:14:47;;;;;;;;;;;3.20;72.30;;;;;;5074817;28;19916;-66
2022/01/09 11:17:13;;;;;;;;;;;3.10;73.90;;;;;;5074703;28;19912;-66
2022/01/09 11:19:38;;;;;;;;;;;3.00;74.20;;;;;;5074664;28;19920;-66
2022/01/09 11:22:06;;;;;;;;;;;3.00;75.00;;;;;;5074691;28;19979;-66
2022/01/09 11:24:55;;;;;;;;;;;3.00;75.60;;;;;;5074631;28;19909;-66
2022/01/09 11:27:40;;;;;;;;;;;3.00;75.10;;;;;;5073218;28;19908;-66
2022/01/09 11:30:05;;;;;;;;;;;3.00;75.60;;;;;;5074543;28;19909;-66
2022/01/09 11:32:34;;;;;;;;;;;3.10;75.40;;;;;;5074523;28;20329;-66
2022/01/09 11:35:02;;;;;;;;;;;3.10;74.80;;;;;;5074422;28;20255;-67
2022/01/09 11:37:41;;;;;;;;;;;3.10;75.30;;;;;;5073547;28;19908;-66
2022/01/09 11:40:23;;;;;;;;;;;3.10;74.70;;;;;;5074249;28;19912;-66
2022/01/09 11:43:06;;;;;;;;;;;3.20;73.90;;;;;;5074240;28;19909;-66
2022/01/09 11:45:40;;;;;;;;;;;3.20;72.00;;;;;;5074073;28;19909;-66
2022/01/09 11:48:06;;;;;;;;;;;3.30;72.80;;;;;;5074127;28;20274;-66
2022/01/09 11:50:33;;;;;;;;;;;3.40;72.70;;;;;;5074093;28;19912;-66
2022/01/09 11:53:00;;;;;;;;;;;3.40;72.00;;;;;;5074076;28;19963;-66
2022/01/09 11:55:36;;;;;;;;;;;3.40;73.10;;;;;;5073819;28;19948;-66
2022/01/09 11:58:06;;;;;;;;;;;3.50;72.70;;;;;;5073714;28;20011;-66
2022/01/09 12:00:33;;;;;;;;;;;3.50;70.70;;;;;;5073923;28;19913;-66
2022/01/09 12:02:59;;;;;;;;;;;3.50;69.90;;;;;;5073862;28;19913;-66
2022/01/09 12:05:25;;;;;;;;;;;3.50;70.80;;;;;;5073890;28;19916;-66
2022/01/09 12:07:54;;;;;;;;;;;3.60;72.10;;;;;;5073810;28;20312;-66
2022/01/09 12:10:22;;;;;;;;;;;3.70;70.80;;;;;;5072413;28;19912;-66
2022/01/09 12:12:48;;;;;;;;;;;3.70;70.60;;;;;;5073989;28;19908;-66
2022/01/09 12:15:14;;;;;;;;;;;3.80;70.50;;;;;;5073662;28;19909;-66
2022/01/09 12:17:45;;;;;;;;;;;3.80;70.40;;;;;;5073880;28;19909;-67
2022/01/09 12:20:11;;;;;;;;;;;3.90;69.80;;;;;;5073568;28;20321;-66
2022/01/09 12:22:49;;;;;;;;;;;3.90;70.00;;;;;;5073254;28;19912;-66
2022/01/09 12:27:54;;;;;;;;;;;4.00;70.00;;;;;;5073624;28;20442;-67
2022/01/09 12:33:06;;;;;;;;;;;4.10;70.70;;;;;;5073700;28;19916;-66
2022/01/09 12:35:32;;;;;;;;;;;4.20;70.90;;;;;;5073378;28;19912;-66
2022/01/09 12:38:00;;;;;;;;;;;4.20;70.40;;;;;;5073199;28;19916;-66
2022/01/09 12:40:26;;;;;;;;;;;4.20;70.80;;;;;;5073319;28;19908;-66
2022/01/09 12:42:53;;;;;;;;;;;4.20;71.60;;;;;;5073278;28;20097;-67
2022/01/09 12:45:22;;;;;;;;;;;4.20;71.60;;;;;;5073241;28;19935;-66
2022/01/09 12:47:48;;;;;;;;;;;4.30;70.90;;;;;;5073206;28;19909;-66
2022/01/09 12:50:14;;;;;;;;;;;4.30;71.40;;;;;;5072863;28;19908;-67
2022/01/09 12:52:39;;;;;;;;;;;4.30;71.80;;;;;;5073148;28;19954;-66
2022/01/09 12:55:06;;;;;;;;;;;4.40;71.60;;;;;;5073143;28;19908;-67
2022/01/09 12:57:51;;;;;;;;;;;4.40;70.00;;;;;;5073261;22;19925;-67
2022/01/09 13:00:28;;;;;;;;;;;4.30;70.70;;;;;;5052560;28;20329;-67
2022/01/09 13:02:54;;;;;;;;;;;4.40;70.80;;;;;;5052919;28;19919;-67
2022/01/09 13:05:23;;;;;;;;;;;4.40;69.50;;;;;;5035028;28;19909;-67
2022/01/09 13:07:59;;;;;;;;;;;4.40;69.10;;;;;;5035056;28;20351;-67
2022/01/09 13:10:32;;;;;;;;;;;4.40;68.30;;;;;;5052839;28;19909;-67
2022/01/09 13:12:58;;;;;;;;;;;4.40;69.70;;;;;;5052861;28;19908;-67
2022/01/09 13:15:33;;;;;;;;;;;4.40;69.10;;;;;;5052827;28;19996;-67
2022/01/09 13:17:59;;;;;;;;;;;4.40;68.80;;;;;;5052771;28;19924;-68
2022/01/09 13:20:25;;;;;;;;;;;4.40;68.80;;;;;;5052829;28;19908;-68
2022/01/09 13:23:07;;;;;;;;;;;4.50;68.30;;;;;;5052838;28;20263;-68
2022/01/09 13:25:54;;;;;;;;;;;4.50;68.00;;;;;;5034998;28;19917;-68
2022/01/09 13:28:21;;;;;;;;;;;4.40;67.90;;;;;;5052621;28;19909;-68
2022/01/09 13:30:47;;;;;;;;;;;4.40;69.40;;;;;;5052698;28;19909;-68
2022/01/09 13:33:12;;;;;;;;;;;4.20;68.20;;;;;;5034819;28;20401;-68
2022/01/09 13:35:38;;;;;;;;;;;4.20;68.50;;;;;;5052633;28;19909;-68
2022/01/09 13:38:04;;;;;;;;;;;4.20;68.20;;;;;;5052607;28;20021;-68
2022/01/09 13:40:29;;;;;;;;;;;4.10;68.10;;;;;;5052632;28;19909;-68
2022/01/09 13:42:55;;;;;;;;;;;4.10;67.70;;;;;;5034755;28;20000;-68
2022/01/09 13:45:22;;;;;;;;;;;4.00;68.10;;;;;;5052611;28;19996;-68
2022/01/09 13:47:49;;;;;;;;;;;4.10;67.80;;;;;;5052585;28;19909;-68
2022/01/09 13:50:25;;;;;;;;;;;4.10;67.70;;;;;;5052543;28;19909;-68
2022/01/09 13:52:51;;;;;;;;;;;4.20;68.10;;;;;;5052559;28;20123;-68
2022/01/09 13:55:21;;;;;;;;;;;4.30;67.90;;;;;;5052504;28;20003;-68
2022/01/09 13:57:49;;;;;;;;;;;4.30;68.20;;;;;;5052164;28;19920;-68
2022/01/09 14:00:16;;;;;;;;;;;4.40;68.10;;;;;;5052461;28;19913;-68
2022/01/09 14:02:42;;;;;;;;;;;4.50;67.80;;;;;;5055622;28;19937;-68
2022/01/09 14:05:09;;;;;;;;;;;4.50;68.00;;;;;;5056130;28;19909;-68
2022/01/09 14:07:37;;;;;;;;;;;4.50;68.00;;;;;;5056063;28;19909;-68
2022/01/09 14:10:03;;;;;;;;;;;4.60;67.80;;;;;;5038043;28;20007;-68
2022/01/09 14:12:30;;;;;;;;;;;4.70;67.40;;;;;;5055908;28;20349;-68
2022/01/09 14:14:55;;;;;;;;;;;4.70;67.00;;;;;;5056204;28;19940;-68
2022/01/09 14:17:28;;;;;;;;;;;4.80;67.40;;;;;;5055881;28;19948;-68